sensor_id;sensor_type;location;lat;lon;timestamp;pressure;altitude;pressure_sealevel;temperature;humidity
13476;BME280;6810;63.824;20.288;2023-02-18T00:02:11;99291.16;;;1.92;100.00
13476;BME280;6810;63.824;20.288;2023-02-18T00:04:58;99289.38;;;1.92;100.00
13476;BME280;6810;63.824;20.288;2023-02-18T00:07:45;99273.13;;;1.84;100.00
13476;BME280;6810;63.824;20.288;2023-02-18T00:10:32;99282.38;;;1.93;100.00
13476;BME280;6810;63.824;20.288;2023-02-18T00:13:19;99283.25;;;1.92;100.00
13476;BME280;6810;63.824;20.288;2023-02-18T00:16:11;99271.84;;;1.93;100.00
13476;BME280;6810;63.824;20.288;2023-02-18T00:19:01;99282.38;;;1.93;100.00
13476;BME280;6810;63.824;20.288;2023-02-18T00:21:48;99241.25;;;1.73;100.00
13476;BME280;6810;63.824;20.288;2023-02-18T00:24:35;99271.22;;;1.88;100.00
13476;BME280;6810;63.824;20.288;2023-02-18T00:27:22;99267.66;;;1.89;100.00
13476;BME280;6810;63.824;20.288;2023-02-18T00:30:09;99274.47;;;1.93;100.00
13476;BME280;6810;63.824;20.288;2023-02-18T00:32:57;99271.00;;;1.92;100.00
13476;BME280;6810;63.824;20.288;2023-02-18T00:35:44;99269.22;;;1.93;100.00
13476;BME280;6810;63.824;20.288;2023-02-18T00:38:31;99270.00;;;1.95;100.00
13476;BME280;6810;63.824;20.288;2023-02-18T00:41:20;99269.16;;;1.94;100.00
13476;BME280;6810;63.824;20.288;2023-02-18T00:44:08;99269.16;;;1.94;100.00
13476;BME280;6810;63.824;20.288;2023-02-18T00:46:56;99258.72;;;1.93;100.00
13476;BME280;6810;63.824;20.288;2023-02-18T00:49:43;99265.59;;;1.95;100.00
13476;BME280;6810;63.824;20.288;2023-02-18T00:52:30;99209.41;;;1.62;100.00
13476;BME280;6810;63.824;20.288;2023-02-18T00:55:17;99264.72;;;1.95;100.00
13476;BME280;6810;63.824;20.288;2023-02-18T00:58:03;99259.47;;;1.95;100.00
13476;BME280;6810;63.824;20.288;2023-02-18T01:00:51;99255.16;;;1.94;100.00
13476;BME280;6810;63.824;20.288;2023-02-18T01:03:40;99264.66;;;1.96;100.00
13476;BME280;6810;63.824;20.288;2023-02-18T01:06:28;99238.25;;;1.80;100.00
13476;BME280;6810;63.824;20.288;2023-02-18T01:09:15;99255.94;;;1.96;100.00
13476;BME280;6810;63.824;20.288;2023-02-18T01:12:02;99248.91;;;1.96;100.00
13476;BME280;6810;63.824;20.288;2023-02-18T01:14:49;99256.78;;;1.96;100.00
13476;BME280;6810;63.824;20.288;2023-02-18T01:17:38;99227.59;;;1.83;100.00
13476;BME280;6810;63.824;20.288;2023-02-18T01:20:25;99249.97;;;1.92;100.00
13476;BME280;6810;63.824;20.288;2023-02-18T01:23:13;99254.09;;;1.98;100.00
13476;BME280;6810;63.824;20.288;2023-02-18T01:26:00;99248.00;;;1.97;100.00
13476;BME280;6810;63.824;20.288;2023-02-18T01:28:48;99252.31;;;1.98;100.00
13476;BME280;6810;63.824;20.288;2023-02-18T01:31:35;99240.03;;;1.99;100.00
13476;BME280;6810;63.824;20.288;2023-02-18T01:34:22;99234.00;;;1.97;100.00
13476;BME280;6810;63.824;20.288;2023-02-18T01:37:09;99237.41;;;1.99;100.00
13476;BME280;6810;63.824;20.288;2023-02-18T01:39:56;99236.56;;;1.98;100.00
13476;BME280;6810;63.824;20.288;2023-02-18T01:42:43;99225.34;;;1.95;100.00
13476;BME280;6810;63.824;20.288;2023-02-18T01:48:33;99238.25;;;1.99;100.00
13476;BME280;6810;63.824;20.288;2023-02-18T01:51:33;99237.34;;;2.00;100.00
13476;BME280;6810;63.824;20.288;2023-02-18T01:54:33;99234.72;;;2.00;100.00
13476;BME280;6810;63.824;20.288;2023-02-18T01:57:24;99225.25;;;1.96;100.00
13476;BME280;6810;63.824;20.288;2023-02-18T02:00:15;99179.31;;;1.69;100.00
13476;BME280;6810;63.824;20.288;2023-02-18T02:03:04;99224.28;;;1.99;100.00
13476;BME280;6810;63.824;20.288;2023-02-18T02:05:51;99218.97;;;2.00;100.00
13476;BME280;6810;63.824;20.288;2023-02-18T02:08:39;99217.16;;;2.01;100.00
13476;BME280;6810;63.824;20.288;2023-02-18T02:24:52;99212.75;;;2.01;100.00
13476;BME280;6810;63.824;20.288;2023-02-18T02:31:33;99211.06;;;2.00;100.00
13476;BME280;6810;63.824;20.288;2023-02-18T02:43:51;99202.25;;;2.01;100.00
13476;BME280;6810;63.824;20.288;2023-02-18T02:46:44;99206.66;;;2.01;100.00
13476;BME280;6810;63.824;20.288;2023-02-18T02:49:48;99175.00;;;1.85;100.00
13476;BME280;6810;63.824;20.288;2023-02-18T02:52:50;99184.25;;;1.94;100.00
13476;BME280;6810;63.824;20.288;2023-02-18T02:55:39;99160.97;;;1.86;100.00
13476;BME280;6810;63.824;20.288;2023-02-18T02:58:27;99183.22;;;1.96;100.00
13476;BME280;6810;63.824;20.288;2023-02-18T03:01:28;99187.34;;;2.02;100.00
13476;BME280;6810;63.824;20.288;2023-02-18T03:11:11;99189.91;;;2.03;100.00
13476;BME280;6810;63.824;20.288;2023-02-18T03:14:09;99190.75;;;2.04;100.00
13476;BME280;6810;63.824;20.288;2023-02-18T03:17:12;99188.19;;;2.02;100.00
13476;BME280;6810;63.824;20.288;2023-02-18T03:20:11;99172.66;;;1.98;100.00
13476;BME280;6810;63.824;20.288;2023-02-18T03:23:03;99187.22;;;2.05;100.00
13476;BME280;6810;63.824;20.288;2023-02-18T03:25:55;99186.28;;;2.06;100.00
13476;BME280;6810;63.824;20.288;2023-02-18T03:28:45;99183.66;;;2.06;100.00
13476;BME280;6810;63.824;20.288;2023-02-18T03:31:36;99179.31;;;2.05;100.00
13476;BME280;6810;63.824;20.288;2023-02-18T03:34:34;99181.00;;;2.06;100.00
13476;BME280;6810;63.824;20.288;2023-02-18T03:37:23;99165.78;;;1.95;100.00
13476;BME280;6810;63.824;20.288;2023-02-18T03:40:10;99175.69;;;2.07;100.00
13476;BME280;6810;63.824;20.288;2023-02-18T03:43:00;99167.88;;;2.06;100.00
13476;BME280;6810;63.824;20.288;2023-02-18T03:45:47;99181.81;;;2.08;100.00
13476;BME280;6810;63.824;20.288;2023-02-18T03:48:34;99161.16;;;2.00;100.00
13476;BME280;6810;63.824;20.288;2023-02-18T03:51:21;99174.75;;;2.08;100.00
13476;BME280;6810;63.824;20.288;2023-02-18T03:54:09;99171.22;;;2.09;100.00
13476;BME280;6810;63.824;20.288;2023-02-18T03:56:56;99177.38;;;2.08;100.00
13476;BME280;6810;63.824;20.288;2023-02-18T03:59:43;99178.25;;;2.09;100.00
13476;BME280;6810;63.824;20.288;2023-02-18T04:02:38;99175.69;;;2.07;100.00
13476;BME280;6810;63.824;20.288;2023-02-18T04:05:25;99167.16;;;2.02;100.00
13476;BME280;6810;63.824;20.288;2023-02-18T04:08:13;99174.75;;;2.08;100.00
13476;BME280;6810;63.824;20.288;2023-02-18T04:11:00;99170.59;;;2.04;100.00
13476;BME280;6810;63.824;20.288;2023-02-18T04:13:47;99175.53;;;2.10;100.00
13476;BME280;6810;63.824;20.288;2023-02-18T04:16:34;99173.84;;;2.09;100.00
13476;BME280;6810;63.824;20.288;2023-02-18T04:19:22;99186.97;;;2.09;100.00
13476;BME280;6810;63.824;20.288;2023-02-18T04:22:09;99179.94;;;2.10;100.00
13476;BME280;6810;63.824;20.288;2023-02-18T04:24:56;99174.69;;;2.10;100.00
13476;BME280;6810;63.824;20.288;2023-02-18T04:27:43;99175.53;;;2.10;100.00
13476;BME280;6810;63.824;20.288;2023-02-18T04:30:30;99175.53;;;2.10;100.00
13476;BME280;6810;63.824;20.288;2023-02-18T04:33:17;99164.41;;;2.05;100.00
13476;BME280;6810;63.824;20.288;2023-02-18T04:36:04;99168.53;;;2.11;100.00
13476;BME280;6810;63.824;20.288;2023-02-18T04:38:52;99171.16;;;2.11;100.00
13476;BME280;6810;63.824;20.288;2023-02-18T04:41:39;99171.22;;;2.09;100.00
13476;BME280;6810;63.824;20.288;2023-02-18T04:44:25;99167.66;;;2.10;100.00
13476;BME280;6810;63.824;20.288;2023-02-18T04:47:13;99174.59;;;2.11;100.00
13476;BME280;6810;63.824;20.288;2023-02-18T04:50:00;99171.97;;;2.11;100.00
13476;BME280;6810;63.824;20.288;2023-02-18T04:52:47;99161.47;;;2.11;100.00
13476;BME280;6810;63.824;20.288;2023-02-18T04:55:35;99160.63;;;2.11;100.00
13476;BME280;6810;63.824;20.288;2023-02-18T04:58:22;99156.22;;;2.11;100.00
13476;BME280;6810;63.824;20.288;2023-02-18T05:01:09;99122.19;;;1.91;100.00
13476;BME280;6810;63.824;20.288;2023-02-18T05:03:56;99152.69;;;2.12;100.00
13476;BME280;6810;63.824;20.288;2023-02-18T05:06:43;99153.59;;;2.11;100.00
13476;BME280;6810;63.824;20.288;2023-02-18T05:09:30;99152.69;;;2.12;100.00
13476;BME280;6810;63.824;20.288;2023-02-18T05:12:17;99140.59;;;2.08;100.00
13476;BME280;6810;63.824;20.288;2023-02-18T05:15:05;99141.53;;;2.07;100.00
13476;BME280;6810;63.824;20.288;2023-02-18T05:17:52;99142.16;;;2.12;100.00
13476;BME280;6810;63.824;20.288;2023-02-18T05:20:39;99153.50;;;2.13;100.00
13476;BME280;6810;63.824;20.288;2023-02-18T05:23:26;99144.78;;;2.12;100.00
13476;BME280;6810;63.824;20.288;2023-02-18T05:26:13;99126.06;;;2.01;100.00
13476;BME280;6810;63.824;20.288;2023-02-18T05:29:00;99143.16;;;2.10;100.00
13476;BME280;6810;63.824;20.288;2023-02-18T05:31:47;99141.31;;;2.12;100.00
13476;BME280;6810;63.824;20.288;2023-02-18T05:34:34;99129.34;;;2.06;100.00
13476;BME280;6810;63.824;20.288;2023-02-18T05:37:21;99150.88;;;2.13;100.00
13476;BME280;6810;63.824;20.288;2023-02-18T05:40:09;99151.81;;;2.12;100.00
13476;BME280;6810;63.824;20.288;2023-02-18T05:42:56;99146.56;;;2.12;100.00
13476;BME280;6810;63.824;20.288;2023-02-18T05:45:44;99144.09;;;2.09;100.00
13476;BME280;6810;63.824;20.288;2023-02-18T05:48:31;99159.69;;;2.12;100.00
13476;BME280;6810;63.824;20.288;2023-02-18T05:51:18;99151.81;;;2.12;100.00
13476;BME280;6810;63.824;20.288;2023-02-18T05:54:05;99152.69;;;2.12;100.00
13476;BME280;6810;63.824;20.288;2023-02-18T05:56:52;99144.78;;;2.12;100.00
13476;BME280;6810;63.824;20.288;2023-02-18T05:59:40;99146.56;;;2.12;100.00
13476;BME280;6810;63.824;20.288;2023-02-18T06:02:30;99130.41;;;2.02;100.00
13476;BME280;6810;63.824;20.288;2023-02-18T06:05:17;99144.88;;;2.11;100.00
13476;BME280;6810;63.824;20.288;2023-02-18T06:08:04;99146.56;;;2.12;100.00
13476;BME280;6810;63.824;20.288;2023-02-18T06:10:51;99144.78;;;2.12;100.00
13476;BME280;6810;63.824;20.288;2023-02-18T06:13:38;99145.69;;;2.11;100.00
13476;BME280;6810;63.824;20.288;2023-02-18T06:16:25;99147.41;;;2.12;100.00
13476;BME280;6810;63.824;20.288;2023-02-18T06:19:12;99141.38;;;2.10;100.00
13476;BME280;6810;63.824;20.288;2023-02-18T06:21:59;99149.19;;;2.12;100.00
13476;BME280;6810;63.824;20.288;2023-02-18T06:24:47;99144.78;;;2.12;100.00
13476;BME280;6810;63.824;20.288;2023-02-18T06:27:34;99146.72;;;2.09;100.00
13476;BME280;6810;63.824;20.288;2023-02-18T06:30:21;99139.53;;;2.12;100.00
13476;BME280;6810;63.824;20.288;2023-02-18T06:33:08;99143.06;;;2.11;100.00
13476;BME280;6810;63.824;20.288;2023-02-18T06:35:57;99151.75;;;2.13;100.00
13476;BME280;6810;63.824;20.288;2023-02-18T06:38:45;99136.91;;;2.12;100.00
13476;BME280;6810;63.824;20.288;2023-02-18T06:41:32;99136.91;;;2.12;100.00
13476;BME280;6810;63.824;20.288;2023-02-18T06:44:19;99143.06;;;2.11;100.00
13476;BME280;6810;63.824;20.288;2023-02-18T06:47:06;99132.63;;;2.10;100.00
13476;BME280;6810;63.824;20.288;2023-02-18T06:49:52;99140.38;;;2.13;100.00
13476;BME280;6810;63.824;20.288;2023-02-18T06:52:39;99143.00;;;2.13;100.00
13476;BME280;6810;63.824;20.288;2023-02-18T06:55:27;99140.28;;;2.14;100.00
13476;BME280;6810;63.824;20.288;2023-02-18T06:58:14;99143.84;;;2.13;100.00
13476;BME280;6810;63.824;20.288;2023-02-18T07:01:01;99141.22;;;2.13;100.00
13476;BME280;6810;63.824;20.288;2023-02-18T07:03:48;99142.09;;;2.14;100.00
13476;BME280;6810;63.824;20.288;2023-02-18T07:06:35;99129.09;;;2.11;100.00
13476;BME280;6810;63.824;20.288;2023-02-18T07:09:22;99138.59;;;2.13;100.00
13476;BME280;6810;63.824;20.288;2023-02-18T07:12:09;99143.00;;;2.13;100.00
13476;BME280;6810;63.824;20.288;2023-02-18T07:14:56;99132.56;;;2.11;100.00
13476;BME280;6810;63.824;20.288;2023-02-18T07:17:43;99141.22;;;2.13;100.00
13476;BME280;6810;63.824;20.288;2023-02-18T07:20:30;99142.16;;;2.12;100.00
13476;BME280;6810;63.824;20.288;2023-02-18T07:23:17;99138.59;;;2.13;100.00
13476;BME280;6810;63.824;20.288;2023-02-18T07:26:10;99135.13;;;2.13;100.00
13476;BME280;6810;63.824;20.288;2023-02-18T07:28:57;99136.84;;;2.14;100.00
13476;BME280;6810;63.824;20.288;2023-02-18T07:31:44;99138.59;;;2.13;100.00
13476;BME280;6810;63.824;20.288;2023-02-18T07:34:31;99135.97;;;2.13;100.00
13476;BME280;6810;63.824;20.288;2023-02-18T07:37:19;99131.50;;;2.15;100.00
13476;BME280;6810;63.824;20.288;2023-02-18T07:40:06;99128.88;;;2.15;100.00
13476;BME280;6810;63.824;20.288;2023-02-18T07:42:53;99139.38;;;2.15;100.00
13476;BME280;6810;63.824;20.288;2023-02-18T07:45:40;99119.66;;;2.07;100.00
13476;BME280;6810;63.824;20.288;2023-02-18T07:48:28;99139.31;;;2.17;100.00
13476;BME280;6810;63.824;20.288;2023-02-18T07:51:15;99107.53;;;2.04;100.00
13476;BME280;6810;63.824;20.288;2023-02-18T10:11:47;99032.25;;;2.20;100.00
13476;BME280;6810;63.824;20.288;2023-02-18T10:14:34;99101.88;;;2.63;100.00
13476;BME280;6810;63.824;20.288;2023-02-18T10:17:25;99091.69;;;2.57;100.00
13476;BME280;6810;63.824;20.288;2023-02-18T10:20:19;99104.34;;;2.66;100.00
13476;BME280;6810;63.824;20.288;2023-02-18T10:23:09;99098.16;;;2.67;100.00
13476;BME280;6810;63.824;20.288;2023-02-18T10:25:58;99100.69;;;2.68;100.00
13476;BME280;6810;63.824;20.288;2023-02-18T10:28:48;99103.25;;;2.70;100.00
13476;BME280;6810;63.824;20.288;2023-02-18T10:31:37;99074.97;;;2.58;100.00
13476;BME280;6810;63.824;20.288;2023-02-18T10:47:10;99096.72;;;2.77;100.00
13476;BME280;6810;63.824;20.288;2023-02-18T10:50:12;99094.94;;;2.77;100.00
13476;BME280;6810;63.824;20.288;2023-02-18T10:53:11;99090.63;;;2.76;100.00
13476;BME280;6810;63.824;20.288;2023-02-18T10:55:59;99091.22;;;2.81;100.00
13476;BME280;6810;63.824;20.288;2023-02-18T10:58:46;99035.00;;;2.51;100.00
13476;BME280;6810;63.824;20.288;2023-02-18T11:01:33;99090.22;;;2.84;100.00
13476;BME280;6810;63.824;20.288;2023-02-18T11:04:39;99088.41;;;2.84;100.00
13476;BME280;6810;63.824;20.288;2023-02-18T11:07:33;99097.16;;;2.85;100.00
13476;BME280;6810;63.824;20.288;2023-02-18T11:10:25;99029.56;;;2.54;100.00
13476;BME280;6810;63.824;20.288;2023-02-18T11:13:21;99087.34;;;2.88;100.00
13476;BME280;6810;63.824;20.288;2023-02-18T11:16:10;99080.31;;;2.89;100.00
13476;BME280;6810;63.824;20.288;2023-02-18T11:18:58;99073.50;;;2.85;100.00
13476;BME280;6810;63.824;20.288;2023-02-18T11:21:45;99066.88;;;2.78;100.00
13476;BME280;6810;63.824;20.288;2023-02-18T11:24:37;99081.91;;;2.91;100.00
13476;BME280;6810;63.824;20.288;2023-02-18T11:27:26;99081.84;;;2.93;100.00
13476;BME280;6810;63.824;20.288;2023-02-18T11:30:23;99085.31;;;2.93;100.00
13476;BME280;6810;63.824;20.288;2023-02-18T11:36:32;99084.38;;;2.94;100.00
13476;BME280;6810;63.824;20.288;2023-02-18T11:39:25;99081.75;;;2.94;100.00
13476;BME280;6810;63.824;20.288;2023-02-18T11:41:56;99074.97;;;2.90;100.00
13476;BME280;6810;63.824;20.288;2023-02-18T11:47:39;99073.78;;;2.96;100.00
13476;BME280;6810;63.824;20.288;2023-02-18T11:50:31;99084.13;;;2.99;100.00
13476;BME280;6810;63.824;20.288;2023-02-18T11:53:34;99086.69;;;3.00;100.00
13476;BME280;6810;63.824;20.288;2023-02-18T11:56:21;99084.91;;;3.01;100.00
13476;BME280;6810;63.824;20.288;2023-02-18T11:59:09;99084.03;;;3.00;100.00
13476;BME280;6810;63.824;20.288;2023-02-18T12:05:10;99083.03;;;3.03;100.00
13476;BME280;6810;63.824;20.288;2023-02-18T12:08:21;99085.56;;;3.04;100.00
13476;BME280;6810;63.824;20.288;2023-02-18T12:11:15;99078.88;;;2.99;100.00
13476;BME280;6810;63.824;20.288;2023-02-18T12:14:21;99083.09;;;3.01;100.00
13476;BME280;6810;63.824;20.288;2023-02-18T12:23:37;99088.28;;;3.03;100.00
13476;BME280;6810;63.824;20.288;2023-02-18T12:26:38;99088.28;;;3.03;100.00
13476;BME280;6810;63.824;20.288;2023-02-18T12:58:31;99070.28;;;2.95;100.00
13476;BME280;6810;63.824;20.288;2023-02-18T13:01:37;99075.53;;;2.95;100.00
13476;BME280;6810;63.824;20.288;2023-02-18T13:14:27;99073.00;;;2.94;100.00
13476;BME280;6810;63.824;20.288;2023-02-18T13:17:17;99062.63;;;2.91;100.00
13476;BME280;6810;63.824;20.288;2023-02-18T13:20:17;99077.50;;;2.92;100.00
13476;BME280;6810;63.824;20.288;2023-02-18T13:23:12;99074.03;;;2.91;100.00
13476;BME280;6810;63.824;20.288;2023-02-18T13:26:03;99076.66;;;2.91;100.00
13476;BME280;6810;63.824;20.288;2023-02-18T13:32:11;99068.00;;;2.89;100.00
13476;BME280;6810;63.824;20.288;2023-02-18T13:38:21;99069.78;;;2.89;100.00
13476;BME280;6810;63.824;20.288;2023-02-18T13:41:14;99071.56;;;2.88;100.00
13476;BME280;6810;63.824;20.288;2023-02-18T13:44:07;99068.06;;;2.88;100.00
13476;BME280;6810;63.824;20.288;2023-02-18T13:46:56;99063.75;;;2.87;100.00
13476;BME280;6810;63.824;20.288;2023-02-18T13:49:44;99068.22;;;2.85;100.00
13476;BME280;6810;63.824;20.288;2023-02-18T13:52:31;99072.56;;;2.86;100.00
13476;BME280;6810;63.824;20.288;2023-02-18T13:55:22;99065.06;;;2.78;100.00
13476;BME280;6810;63.824;20.288;2023-02-18T14:03:57;99056.44;;;2.76;100.00
13476;BME280;6810;63.824;20.288;2023-02-18T14:13:22;99076.28;;;2.82;100.00
13476;BME280;6810;63.824;20.288;2023-02-18T14:16:09;99075.50;;;2.80;100.00
13476;BME280;6810;63.824;20.288;2023-02-18T14:18:59;99040.88;;;2.56;100.00
13476;BME280;6810;63.824;20.288;2023-02-18T14:21:46;99072.97;;;2.78;100.00
13476;BME280;6810;63.824;20.288;2023-02-18T14:24:47;99080.94;;;2.77;100.00
13476;BME280;6810;63.824;20.288;2023-02-18T14:27:35;99073.97;;;2.76;100.00
13476;BME280;6810;63.824;20.288;2023-02-18T14:30:24;99078.38;;;2.75;100.00
13476;BME280;6810;63.824;20.288;2023-02-18T14:33:14;99082.81;;;2.75;100.00
13476;BME280;6810;63.824;20.288;2023-02-18T14:45:16;99074.31;;;2.70;100.00
13476;BME280;6810;63.824;20.288;2023-02-18T14:51:14;99081.50;;;2.66;100.00
13476;BME280;6810;63.824;20.288;2023-02-18T14:54:04;99085.94;;;2.66;100.00
13476;BME280;6810;63.824;20.288;2023-02-18T14:56:59;99086.03;;;2.64;100.00
13476;BME280;6810;63.824;20.288;2023-02-18T14:59:47;99082.53;;;2.64;100.00
13476;BME280;6810;63.824;20.288;2023-02-18T15:02:36;99077.34;;;2.62;100.00
13476;BME280;6810;63.824;20.288;2023-02-18T15:05:25;99071.22;;;2.62;100.00
13476;BME280;6810;63.824;20.288;2023-02-18T15:08:21;99067.31;;;2.53;100.00
13476;BME280;6810;63.824;20.288;2023-02-18T15:11:10;99077.50;;;2.59;100.00
13476;BME280;6810;63.824;20.288;2023-02-18T15:13:57;99069.16;;;2.51;100.00
13476;BME280;6810;63.824;20.288;2023-02-18T15:16:45;99031.63;;;2.32;100.00
13476;BME280;6810;63.824;20.288;2023-02-18T15:19:41;99028.56;;;2.24;100.00
13476;BME280;6810;63.824;20.288;2023-02-18T15:22:31;99087.31;;;2.56;100.00
13476;BME280;6810;63.824;20.288;2023-02-18T15:25:19;99077.28;;;2.47;100.00
13476;BME280;6810;63.824;20.288;2023-02-18T15:28:20;99065.41;;;2.40;100.00
13476;BME280;6810;63.824;20.288;2023-02-18T15:31:09;99071.34;;;2.43;100.00
13476;BME280;6810;63.824;20.288;2023-02-18T15:33:57;99079.84;;;2.48;100.00
13476;BME280;6810;63.824;20.288;2023-02-18T15:36:49;99080.78;;;2.47;100.00
13476;BME280;6810;63.824;20.288;2023-02-18T15:39:40;99033.88;;;2.23;100.00
13476;BME280;6810;63.824;20.288;2023-02-18T15:42:30;99080.94;;;2.44;100.00
13476;BME280;6810;63.824;20.288;2023-02-18T15:45:21;99050.66;;;2.20;100.00
13476;BME280;6810;63.824;20.288;2023-02-18T15:48:27;99080.25;;;2.41;100.00
13476;BME280;6810;63.824;20.288;2023-02-18T15:51:21;99077.84;;;2.36;100.00
13476;BME280;6810;63.824;20.288;2023-02-18T15:54:14;99018.22;;;2.04;100.00
13476;BME280;6810;63.824;20.288;2023-02-18T15:57:04;99072.59;;;2.36;100.00
13476;BME280;6810;63.824;20.288;2023-02-18T16:00:02;99083.25;;;2.33;100.00
13476;BME280;6810;63.824;20.288;2023-02-18T16:02:55;99082.31;;;2.34;100.00
13476;BME280;6810;63.824;20.288;2023-02-18T16:05:42;99078.94;;;2.32;100.00
13476;BME280;6810;63.824;20.288;2023-02-18T16:08:29;99079.84;;;2.31;100.00
13476;BME280;6810;63.824;20.288;2023-02-18T16:11:16;99077.22;;;2.31;100.00
13476;BME280;6810;63.824;20.288;2023-02-18T16:14:03;99062.88;;;2.21;100.00
13476;BME280;6810;63.824;20.288;2023-02-18T16:17:04;99080.88;;;2.29;100.00
13476;BME280;6810;63.824;20.288;2023-02-18T16:20:23;99080.97;;;2.27;100.00
13476;BME280;6810;63.824;20.288;2023-02-18T16:23:12;99081.03;;;2.26;100.00
13476;BME280;6810;63.824;20.288;2023-02-18T16:26:21;99070.84;;;2.20;100.00
13476;BME280;6810;63.824;20.288;2023-02-18T16:29:22;99082.09;;;2.22;100.00
13476;BME280;6810;63.824;20.288;2023-02-18T16:32:10;99080.25;;;2.24;100.00
13476;BME280;6810;63.824;20.288;2023-02-18T16:34:57;99087.34;;;2.22;100.00
13476;BME280;6810;63.824;20.288;2023-02-18T16:37:44;99089.22;;;2.20;100.00
13476;BME280;6810;63.824;20.288;2023-02-18T16:43:23;99076.16;;;2.18;100.00
13476;BME280;6810;63.824;20.288;2023-02-18T16:45:56;99081.44;;;2.18;100.00
13476;BME280;6810;63.824;20.288;2023-02-18T16:48:46;99082.34;;;2.17;100.00
13476;BME280;6810;63.824;20.288;2023-02-18T16:51:34;99074.69;;;2.13;100.00
13476;BME280;6810;63.824;20.288;2023-02-18T16:54:22;99052.75;;;1.97;100.00
13476;BME280;6810;63.824;20.288;2023-02-18T16:57:12;99056.84;;;2.02;100.00
13476;BME280;6810;63.824;20.288;2023-02-18T17:00:00;99059.63;;;1.99;100.00
13476;BME280;6810;63.824;20.288;2023-02-18T17:02:49;99086.06;;;2.13;100.00
13476;BME280;6810;63.824;20.288;2023-02-18T17:05:37;99074.84;;;2.10;100.00
13476;BME280;6810;63.824;20.288;2023-02-18T17:08:27;99080.09;;;2.10;100.00
13476;BME280;6810;63.824;20.288;2023-02-18T17:11:25;99088.84;;;2.10;100.00
13476;BME280;6810;63.824;20.288;2023-02-18T17:14:18;99088.91;;;2.09;100.00
13476;BME280;6810;63.824;20.288;2023-02-18T17:17:10;99081.81;;;2.11;100.00
13476;BME280;6810;63.824;20.288;2023-02-18T17:19:57;99093.16;;;2.11;100.00
13476;BME280;6810;63.824;20.288;2023-02-18T17:22:44;99061.50;;;1.97;100.00
13476;BME280;6810;63.824;20.288;2023-02-18T17:25:38;99086.22;;;2.10;100.00
13476;BME280;6810;63.824;20.288;2023-02-18T17:28:25;99083.81;;;2.06;100.00
13476;BME280;6810;63.824;20.288;2023-02-18T17:31:18;99092.41;;;2.09;100.00
13476;BME280;6810;63.824;20.288;2023-02-18T17:34:08;99097.66;;;2.09;100.00
13476;BME280;6810;63.824;20.288;2023-02-18T17:37:17;99098.56;;;2.08;100.00
13476;BME280;6810;63.824;20.288;2023-02-18T17:40:11;99098.63;;;2.07;100.00
13476;BME280;6810;63.824;20.288;2023-02-18T17:42:59;99097.81;;;2.06;100.00
13476;BME280;6810;63.824;20.288;2023-02-18T17:45:54;99086.03;;;1.96;100.00
13476;BME280;6810;63.824;20.288;2023-02-18T17:48:43;99083.50;;;1.95;100.00
13476;BME280;6810;63.824;20.288;2023-02-18T17:51:30;99107.53;;;2.04;100.00
13476;BME280;6810;63.824;20.288;2023-02-18T17:54:19;99103.22;;;2.03;100.00
13476;BME280;6810;63.824;20.288;2023-02-18T17:57:07;99060.84;;;1.75;100.00
13476;BME280;6810;63.824;20.288;2023-02-18T17:59:54;99106.81;;;2.01;100.00
13476;BME280;6810;63.824;20.288;2023-02-18T18:02:41;99105.22;;;1.98;100.00
13476;BME280;6810;63.824;20.288;2023-02-18T18:05:30;99107.84;;;1.98;100.00
13476;BME280;6810;63.824;20.288;2023-02-18T18:08:17;99067.34;;;1.68;100.00
13476;BME280;6810;63.824;20.288;2023-02-18T18:11:05;99113.25;;;1.95;100.00
13476;BME280;6810;63.824;20.288;2023-02-18T18:13:52;99116.94;;;1.91;100.00
13476;BME280;6810;63.824;20.288;2023-02-18T18:16:39;99113.31;;;1.94;100.00
13476;BME280;6810;63.824;20.288;2023-02-18T18:19:06;99115.94;;;1.94;100.00
13476;BME280;6810;63.824;20.288;2023-02-18T18:21:53;99117.72;;;1.93;100.00
13476;BME280;6810;63.824;20.288;2023-02-18T18:24:40;99118.66;;;1.92;100.00
13476;BME280;6810;63.824;20.288;2023-02-18T18:27:27;99091.44;;;1.76;100.00
13476;BME280;6810;63.824;20.288;2023-02-18T18:30:15;99123.91;;;1.92;100.00
13476;BME280;6810;63.824;20.288;2023-02-18T18:33:04;99126.59;;;1.91;100.00
13476;BME280;6810;63.824;20.288;2023-02-18T18:35:56;99124.06;;;1.89;100.00
13476;BME280;6810;63.824;20.288;2023-02-18T18:38:45;99126.69;;;1.89;100.00
13476;BME280;6810;63.824;20.288;2023-02-18T18:41:32;99135.53;;;1.87;100.00
13476;BME280;6810;63.824;20.288;2023-02-18T18:44:19;99120.22;;;1.77;100.00
13476;BME280;6810;63.824;20.288;2023-02-18T18:47:06;99139.97;;;1.86;100.00
13476;BME280;6810;63.824;20.288;2023-02-18T18:49:41;99141.72;;;1.86;100.00
13476;BME280;6810;63.824;20.288;2023-02-18T18:52:28;99139.09;;;1.86;100.00
13476;BME280;6810;63.824;20.288;2023-02-18T18:55:27;99144.44;;;1.84;100.00
13476;BME280;6810;63.824;20.288;2023-02-18T18:58:15;99142.66;;;1.85;100.00
13476;BME280;6810;63.824;20.288;2023-02-18T19:01:03;99138.31;;;1.83;100.00
13476;BME280;6810;63.824;20.288;2023-02-18T19:03:51;99147.06;;;1.84;100.00
13476;BME280;6810;63.824;20.288;2023-02-18T19:06:38;99142.66;;;1.85;100.00
13476;BME280;6810;63.824;20.288;2023-02-18T19:09:25;99143.72;;;1.80;100.00
13476;BME280;6810;63.824;20.288;2023-02-18T19:12:12;99148.00;;;1.83;100.00
13476;BME280;6810;63.824;20.288;2023-02-18T19:15:01;99145.50;;;1.80;100.00
13476;BME280;6810;63.824;20.288;2023-02-18T19:17:53;99148.06;;;1.82;100.00
13476;BME280;6810;63.824;20.288;2023-02-18T19:20:41;99128.47;;;1.70;100.00
13476;BME280;6810;63.824;20.288;2023-02-18T19:23:28;99149.03;;;1.79;100.00
13476;BME280;6810;63.824;20.288;2023-02-18T19:26:15;99152.47;;;1.81;100.00
13476;BME280;6810;63.824;20.288;2023-02-18T19:29:02;99144.94;;;1.73;100.00
13476;BME280;6810;63.824;20.288;2023-02-18T19:31:49;99122.69;;;1.63;100.00
13476;BME280;6810;63.824;20.288;2023-02-18T19:34:36;99148.13;;;1.80;100.00